createdAt,value
2023-01-23T00:01:16.814Z,388
2023-01-23T00:02:16.304Z,395
2023-01-23T00:03:16.680Z,396
2023-01-23T00:04:16.775Z,394
2023-01-23T00:05:16.780Z,387
2023-01-23T00:06:16.077Z,385
2023-01-23T00:07:16.412Z,381
2023-01-23T00:08:16.668Z,387
2023-01-23T00:09:16.921Z,386
2023-01-23T00:10:16.416Z,395
2023-01-23T00:11:16.866Z,391
2023-01-23T00:12:16.252Z,385
2023-01-23T00:13:16.793Z,392
2023-01-23T00:14:16.441Z,387
2023-01-23T00:15:16.841Z,392
2023-01-23T00:16:16.148Z,396
2023-01-23T00:17:16.423Z,397
2023-01-23T00:18:16.612Z,389
2023-01-23T00:19:16.848Z,390
2023-01-23T00:20:17.730Z,391
2023-01-23T00:21:16.318Z,385
2023-01-23T00:22:17.163Z,382
2023-01-23T00:24:16.864Z,385
2023-01-23T00:25:16.614Z,381
2023-01-23T00:26:17.761Z,397
2023-01-23T00:29:16.735Z,394
2023-01-23T00:30:17.137Z,386
2023-01-23T00:31:16.609Z,398
2023-01-23T00:32:16.497Z,391
2023-01-23T00:33:16.446Z,393
2023-01-23T00:34:16.824Z,396
2023-01-23T00:35:16.625Z,393
2023-01-23T00:37:16.828Z,395
2023-01-23T00:38:17.226Z,386
2023-01-23T00:39:16.683Z,383
2023-01-23T00:41:16.533Z,389
2023-01-23T00:42:16.633Z,387
2023-01-23T00:43:16.613Z,388
2023-01-23T00:44:16.872Z,390
2023-01-23T00:45:16.521Z,391
2023-01-23T00:46:16.906Z,377
2023-01-23T00:47:16.642Z,382
2023-01-23T00:48:16.767Z,384
2023-01-23T00:50:17.017Z,385
2023-01-23T00:52:16.749Z,389
2023-01-23T00:53:16.755Z,386
2023-01-23T00:54:17.119Z,383
2023-01-23T00:55:16.822Z,379
2023-01-23T00:56:16.967Z,381
2023-01-23T00:57:16.300Z,388
2023-01-23T00:58:16.470Z,389
2023-01-23T00:59:16.532Z,387
2023-01-23T01:00:18.439Z,386
2023-01-23T01:01:19.077Z,388
2023-01-23T01:02:16.519Z,389
2023-01-23T01:03:17.026Z,381
2023-01-23T01:04:16.519Z,383
2023-01-23T01:05:16.913Z,388
2023-01-23T01:06:16.678Z,395
2023-01-23T01:08:16.989Z,392
2023-01-23T01:09:16.816Z,380
2023-01-23T01:10:17.428Z,378
2023-01-23T01:11:16.805Z,391
2023-01-23T01:12:16.668Z,390
2023-01-23T01:13:17.035Z,392
2023-01-23T01:14:16.840Z,390
2023-01-23T01:15:17.123Z,386
2023-01-23T01:17:17.410Z,411
2023-01-23T01:18:16.852Z,401
2023-01-23T01:19:16.623Z,388
2023-01-23T01:20:16.665Z,390
2023-01-23T01:21:16.623Z,391
2023-01-23T01:22:17.149Z,398
2023-01-23T01:24:16.303Z,383
2023-01-23T01:25:17.103Z,381
2023-01-23T01:26:16.811Z,386
2023-01-23T01:27:17.142Z,389
2023-01-23T01:28:17.551Z,391
2023-01-23T01:29:16.580Z,391
2023-01-23T01:30:17.297Z,396
2023-01-23T01:31:17.001Z,385
2023-01-23T01:33:17.600Z,383
2023-01-23T01:34:17.323Z,388
2023-01-23T01:35:17.015Z,386
2023-01-23T01:36:16.622Z,376
2023-01-23T01:37:16.865Z,388
2023-01-23T01:38:16.442Z,384
2023-01-23T01:39:16.665Z,385
2023-01-23T01:40:17.276Z,393
2023-01-23T01:41:16.891Z,402
2023-01-23T01:42:16.235Z,401
2023-01-23T01:43:16.619Z,396
2023-01-23T01:44:16.960Z,394
2023-01-23T01:45:16.449Z,384
2023-01-23T01:47:16.851Z,386
2023-01-23T01:48:16.731Z,387
2023-01-23T01:49:16.842Z,393
2023-01-23T01:50:16.412Z,386
2023-01-23T01:51:16.997Z,391
2023-01-23T01:52:16.821Z,398
2023-01-23T01:53:16.978Z,386
2023-01-23T01:54:16.400Z,390
2023-01-23T01:55:16.845Z,386
2023-01-23T01:56:16.618Z,382
2023-01-23T01:57:16.768Z,387
2023-01-23T01:58:16.423Z,390
2023-01-23T01:59:16.875Z,395
2023-01-23T02:00:17.477Z,390
2023-01-23T02:01:16.601Z,389
2023-01-23T02:02:17.266Z,395
2023-01-23T02:03:14.859Z,402
2023-01-23T02:04:16.924Z,394
2023-01-23T02:05:16.260Z,392
2023-01-23T02:06:16.651Z,391
2023-01-23T02:08:16.770Z,391
2023-01-23T02:09:16.390Z,385
2023-01-23T02:10:17.611Z,382
2023-01-23T02:11:16.530Z,381
2023-01-23T02:12:16.357Z,388
2023-01-23T02:13:16.450Z,394
2023-01-23T02:14:16.879Z,402
2023-01-23T02:16:16.436Z,394
2023-01-23T02:17:16.817Z,392
2023-01-23T02:18:16.745Z,387
2023-01-23T02:19:16.457Z,388
2023-01-23T02:20:17.577Z,387
2023-01-23T02:21:16.497Z,381
2023-01-23T02:22:16.750Z,385
2023-01-23T02:23:17.030Z,388
2023-01-23T02:24:16.441Z,397
2023-01-23T02:25:17.001Z,391
2023-01-23T02:26:16.448Z,378
2023-01-23T02:27:16.677Z,381
2023-01-23T02:28:16.993Z,387
2023-01-23T02:29:16.731Z,392
2023-01-23T02:30:17.297Z,399
2023-01-23T02:31:17.276Z,391
2023-01-23T02:32:17.432Z,390
2023-01-23T02:33:16.899Z,403
2023-01-23T02:34:16.483Z,396
2023-01-23T02:35:16.942Z,392
2023-01-23T02:36:16.437Z,393
2023-01-23T02:38:17.221Z,381
2023-01-23T02:39:15.315Z,383
2023-01-23T02:40:17.354Z,387
2023-01-23T02:41:16.868Z,390
2023-01-23T02:42:16.591Z,389
2023-01-23T02:43:17.114Z,392
2023-01-23T02:44:16.514Z,393
2023-01-23T02:45:16.838Z,398
2023-01-23T02:46:16.444Z,394
2023-01-23T02:47:16.840Z,405
2023-01-23T02:48:16.565Z,393
2023-01-23T02:49:17.007Z,400
2023-01-23T02:50:16.979Z,396
2023-01-23T02:52:16.916Z,400
2023-01-23T02:53:16.608Z,392
2023-01-23T02:54:16.657Z,389
2023-01-23T02:55:17.126Z,390
2023-01-23T02:56:16.660Z,397
2023-01-23T02:57:16.912Z,402
2023-01-23T02:58:16.357Z,396
2023-01-23T02:59:16.838Z,395
2023-01-23T03:01:17.201Z,390
2023-01-23T03:02:17.412Z,389
2023-01-23T03:03:16.569Z,378
2023-01-23T03:04:16.983Z,379
2023-01-23T03:05:16.761Z,395
2023-01-23T03:06:16.510Z,399
2023-01-23T03:07:16.960Z,400
2023-01-23T03:08:16.486Z,399
2023-01-23T03:09:16.999Z,395
2023-01-23T03:10:16.865Z,398
2023-01-23T03:12:16.548Z,401
2023-01-23T03:13:17.010Z,396
2023-01-23T03:15:16.822Z,389
2023-01-23T03:16:16.290Z,383
2023-01-23T03:17:17.015Z,378
2023-01-23T03:18:16.891Z,390
2023-01-23T03:19:16.436Z,392
2023-01-23T03:20:17.137Z,387
2023-01-23T03:21:16.745Z,388
2023-01-23T03:22:16.390Z,380
2023-01-23T03:23:16.799Z,375
2023-01-23T03:24:16.566Z,380
2023-01-23T03:25:17.425Z,390
2023-01-23T03:26:17.033Z,391
2023-01-23T03:27:16.753Z,397
2023-01-23T03:28:16.651Z,385
2023-01-23T03:29:17.005Z,383
2023-01-23T03:30:16.969Z,389
2023-01-23T03:32:17.062Z,385
2023-01-23T03:33:16.619Z,381
2023-01-23T03:34:17.256Z,388
2023-01-23T03:35:17.166Z,396
2023-01-23T03:36:16.928Z,397
2023-01-23T03:37:16.681Z,392
2023-01-23T03:38:16.845Z,396
2023-01-23T03:39:16.948Z,399
2023-01-23T03:40:16.844Z,396
2023-01-23T03:41:16.564Z,397
2023-01-23T03:42:16.416Z,389
2023-01-23T03:43:17.052Z,377
2023-01-23T03:44:16.538Z,388
2023-01-23T03:45:17.201Z,396
2023-01-23T03:46:16.905Z,394
2023-01-23T03:47:16.881Z,395
2023-01-23T03:48:16.935Z,398
2023-01-23T03:49:16.598Z,401
2023-01-23T03:50:17.652Z,395
2023-01-23T03:52:16.800Z,386
2023-01-23T03:53:16.795Z,391
2023-01-23T03:54:16.666Z,386
2023-01-23T03:55:17.327Z,384
2023-01-23T03:56:16.811Z,393
2023-01-23T03:57:16.623Z,396
2023-01-23T03:58:17.030Z,393
2023-01-23T03:59:16.780Z,394
2023-01-23T04:00:17.711Z,390
2023-01-23T04:01:16.790Z,388
2023-01-23T04:02:16.806Z,385
2023-01-23T04:03:16.740Z,386
2023-01-23T04:04:16.999Z,388
2023-01-23T04:05:16.768Z,392
2023-01-23T04:06:17.105Z,393
2023-01-23T04:07:16.905Z,398
2023-01-23T04:10:17.244Z,392
2023-01-23T04:11:16.786Z,390
2023-01-23T04:12:16.548Z,388
2023-01-23T04:13:17.417Z,386
2023-01-23T04:14:17.227Z,382
2023-01-23T04:15:17.160Z,386
2023-01-23T04:16:17.133Z,383
2023-01-23T04:17:16.999Z,388
2023-01-23T04:18:16.632Z,396
2023-01-23T04:19:17.291Z,391
2023-01-23T04:20:16.971Z,386
2023-01-23T04:21:16.616Z,388
2023-01-23T04:23:17.085Z,397
2023-01-23T04:24:16.809Z,391
2023-01-23T04:25:16.715Z,387
2023-01-23T04:26:17.079Z,390
2023-01-23T04:28:16.790Z,402
2023-01-23T04:29:16.592Z,408
2023-01-23T04:30:17.702Z,405
2023-01-23T04:31:16.777Z,394
2023-01-23T04:32:16.754Z,398
2023-01-23T04:33:16.597Z,401
2023-01-23T04:34:17.006Z,399
2023-01-23T04:35:16.996Z,392
2023-01-23T04:36:16.764Z,400
2023-01-23T04:37:17.210Z,406
2023-01-23T04:38:16.934Z,401
2023-01-23T04:39:16.849Z,403
2023-01-23T04:40:16.814Z,413
2023-01-23T04:41:16.482Z,414
2023-01-23T04:42:17.014Z,407
2023-01-23T04:43:16.749Z,411
2023-01-23T04:44:16.651Z,415
2023-01-23T04:45:17.468Z,405
2023-01-23T04:46:16.850Z,405
2023-01-23T04:47:16.778Z,404
2023-01-23T04:48:16.442Z,403
2023-01-23T04:49:16.907Z,407
2023-01-23T04:50:16.584Z,406
2023-01-23T04:51:17.233Z,405
2023-01-23T04:52:17.118Z,410
2023-01-23T04:53:16.776Z,409
2023-01-23T04:54:16.712Z,408
2023-01-23T04:55:17.293Z,416
2023-01-23T04:56:17.090Z,416
2023-01-23T04:57:16.803Z,410
2023-01-23T04:58:16.809Z,411
2023-01-23T04:59:16.613Z,416
2023-01-23T05:00:18.775Z,415
2023-01-23T05:01:17.145Z,415
2023-01-23T05:02:17.020Z,417
2023-01-23T05:03:17.034Z,416
2023-01-23T05:04:16.903Z,420
2023-01-23T05:05:16.551Z,423
2023-01-23T05:06:17.089Z,424
2023-01-23T05:07:16.956Z,419
2023-01-23T05:08:16.830Z,412
2023-01-23T05:09:16.980Z,422
2023-01-23T05:10:16.914Z,427
2023-01-23T05:11:16.507Z,418
2023-01-23T05:12:16.758Z,426
2023-01-23T05:14:17.036Z,415
2023-01-23T05:16:17.204Z,414
2023-01-23T05:17:16.871Z,418
2023-01-23T05:19:17.060Z,422
2023-01-23T05:20:17.176Z,418
2023-01-23T05:21:17.098Z,410
2023-01-23T05:22:16.901Z,409
2023-01-23T05:24:16.623Z,412
2023-01-23T05:25:17.200Z,414
2023-01-23T05:26:16.765Z,406
2023-01-23T05:27:16.798Z,412
2023-01-23T05:28:16.812Z,414
2023-01-23T05:29:16.695Z,413
2023-01-23T05:30:17.676Z,420
2023-01-23T05:31:16.909Z,413
2023-01-23T05:32:16.738Z,414
2023-01-23T05:33:17.283Z,409
2023-01-23T05:34:17.044Z,409
2023-01-23T05:35:17.165Z,404
2023-01-23T05:36:18.619Z,417
2023-01-23T05:38:16.995Z,420
2023-01-23T05:39:17.396Z,419
2023-01-23T05:40:17.883Z,412
2023-01-23T05:41:16.874Z,408
2023-01-23T05:42:16.835Z,403
2023-01-23T05:43:16.745Z,405
2023-01-23T05:44:16.701Z,404
2023-01-23T05:46:16.821Z,407
2023-01-23T05:47:16.871Z,408
2023-01-23T05:48:16.789Z,415
2023-01-23T05:49:17.112Z,408
2023-01-23T05:50:17.257Z,403
2023-01-23T05:51:17.153Z,407
2023-01-23T05:52:16.813Z,417
2023-01-23T05:53:16.989Z,421
2023-01-23T05:54:17.080Z,417
2023-01-23T05:55:16.870Z,413
2023-01-23T05:56:16.641Z,410
2023-01-23T05:57:17.334Z,406
2023-01-23T05:58:17.145Z,398
2023-01-23T05:59:17.324Z,404
2023-01-23T06:00:18.587Z,413
2023-01-23T06:01:17.345Z,413
2023-01-23T06:02:17.245Z,411
2023-01-23T06:03:17.075Z,407
2023-01-23T06:05:16.946Z,406
2023-01-23T06:06:17.034Z,404
2023-01-23T06:07:16.968Z,394
2023-01-23T06:08:16.779Z,381
2023-01-23T06:09:17.246Z,398
2023-01-23T06:10:17.128Z,402
2023-01-23T06:11:16.682Z,411
2023-01-23T06:12:17.006Z,409
2023-01-23T06:13:16.945Z,410
2023-01-23T06:14:17.155Z,404
2023-01-23T06:15:17.349Z,400
2023-01-23T06:16:17.570Z,399
2023-01-23T06:17:17.479Z,404
2023-01-23T06:18:17.455Z,410
2023-01-23T06:19:17.924Z,404
2023-01-23T06:20:16.944Z,406
2023-01-23T06:21:17.070Z,399
2023-01-23T06:23:17.112Z,395
2023-01-23T06:24:17.061Z,400
2023-01-23T06:26:16.471Z,407
2023-01-23T06:27:16.797Z,395
2023-01-23T06:28:16.779Z,397
2023-01-23T06:29:16.983Z,399
2023-01-23T06:30:17.932Z,404
2023-01-23T06:31:17.274Z,405
2023-01-23T06:32:17.190Z,397
2023-01-23T06:33:17.150Z,392
2023-01-23T06:34:17.143Z,400
2023-01-23T06:35:17.040Z,397
2023-01-23T06:36:17.032Z,380
2023-01-23T06:37:17.030Z,384
2023-01-23T06:38:16.741Z,387
2023-01-23T06:39:16.916Z,396
2023-01-23T06:40:17.088Z,382
2023-01-23T06:41:19.739Z,392
2023-01-23T06:42:17.182Z,386
2023-01-23T06:43:17.357Z,392
2023-01-23T06:44:17.252Z,402
2023-01-23T06:45:17.455Z,406
2023-01-23T06:46:16.129Z,404
2023-01-23T06:47:17.124Z,395
2023-01-23T06:48:17.030Z,394
2023-01-23T06:49:15.502Z,400
2023-01-23T06:50:17.112Z,399
2023-01-23T06:51:17.503Z,397
2023-01-23T06:52:17.042Z,393
2023-01-23T06:53:17.021Z,401
2023-01-23T06:54:17.041Z,405
2023-01-23T06:55:17.316Z,403
2023-01-23T06:56:17.619Z,401
2023-01-23T06:57:17.055Z,405
2023-01-23T06:58:17.005Z,404
2023-01-23T06:59:17.382Z,411
2023-01-23T07:00:18.680Z,417
2023-01-23T07:01:16.627Z,412
2023-01-23T07:02:16.798Z,401
2023-01-23T07:03:17.130Z,410
2023-01-23T07:04:17.634Z,412
2023-01-23T07:05:17.142Z,407
2023-01-23T07:06:17.434Z,404
2023-01-23T07:08:17.315Z,407
2023-01-23T07:09:17.358Z,405
2023-01-23T07:11:17.350Z,404
2023-01-23T07:12:16.967Z,411
2023-01-23T07:14:17.141Z,406
2023-01-23T07:15:17.789Z,411
2023-01-23T07:16:17.093Z,405
2023-01-23T07:17:17.310Z,402
2023-01-23T07:18:17.379Z,401
2023-01-23T07:19:17.388Z,400
2023-01-23T07:22:17.198Z,386
2023-01-23T07:23:17.083Z,389
2023-01-23T07:24:17.119Z,402
2023-01-23T07:25:17.381Z,387
2023-01-23T07:26:17.387Z,390
2023-01-23T07:28:17.392Z,406
2023-01-23T07:29:17.248Z,401
2023-01-23T07:31:17.418Z,399
2023-01-23T07:32:17.169Z,401
2023-01-23T07:33:17.193Z,398
2023-01-23T07:34:17.442Z,405
2023-01-23T07:35:17.284Z,408
2023-01-23T07:36:17.218Z,412
2023-01-23T07:37:17.259Z,400
2023-01-23T07:38:17.349Z,397
2023-01-23T07:39:17.207Z,402
2023-01-23T07:41:17.231Z,400
2023-01-23T07:42:16.837Z,395
2023-01-23T07:43:17.110Z,388
2023-01-23T07:44:16.975Z,395
2023-01-23T07:45:17.357Z,393
2023-01-23T07:46:17.560Z,389
2023-01-23T07:47:17.033Z,394
2023-01-23T07:49:16.493Z,393
2023-01-23T07:50:17.170Z,388
2023-01-23T07:52:16.804Z,389
2023-01-23T07:53:16.993Z,403
2023-01-23T07:54:16.971Z,413
2023-01-23T07:56:17.321Z,408
2023-01-23T07:57:16.638Z,410
2023-01-23T07:58:16.632Z,398
2023-01-23T07:59:17.713Z,391
2023-01-23T08:02:17.039Z,401
2023-01-23T08:03:17.506Z,406
2023-01-23T08:04:17.134Z,400
2023-01-23T08:06:17.184Z,416
2023-01-23T08:08:17.146Z,401
2023-01-23T08:10:17.397Z,400
2023-01-23T08:11:16.492Z,408
2023-01-23T08:12:16.879Z,401
2023-01-23T08:13:16.950Z,403
2023-01-23T08:14:17.090Z,410
2023-01-23T08:16:17.372Z,419
2023-01-23T08:17:17.144Z,414
2023-01-23T08:18:17.323Z,411
2023-01-23T08:20:17.848Z,406
2023-01-23T08:21:17.187Z,398
2023-01-23T08:22:17.443Z,402
2023-01-23T08:23:17.164Z,406
2023-01-23T08:24:17.312Z,400
2023-01-23T08:25:17.387Z,414
2023-01-23T08:27:17.431Z,409
2023-01-23T08:28:16.523Z,402
2023-01-23T08:29:16.565Z,403
2023-01-23T08:31:17.297Z,406
2023-01-23T08:33:16.650Z,397
2023-01-23T08:34:17.471Z,398
2023-01-23T08:35:17.284Z,400
2023-01-23T08:36:17.363Z,394
2023-01-23T08:37:17.296Z,396
2023-01-23T08:38:17.254Z,402
2023-01-23T08:40:17.368Z,397
2023-01-23T08:41:17.396Z,407
2023-01-23T08:43:17.209Z,404
2023-01-23T08:44:17.155Z,389
2023-01-23T08:46:17.677Z,402
2023-01-23T08:47:17.162Z,402
2023-01-23T08:48:17.345Z,398
2023-01-23T08:49:17.291Z,388
2023-01-23T08:50:18.311Z,393
2023-01-23T08:51:17.159Z,397
2023-01-23T08:52:17.372Z,403
2023-01-23T08:53:17.330Z,392
2023-01-23T08:54:17.317Z,393
2023-01-23T08:55:17.674Z,398
2023-01-23T08:56:17.184Z,400
2023-01-23T08:57:17.632Z,403
2023-01-23T08:58:17.100Z,413
2023-01-23T08:59:16.829Z,416
2023-01-23T09:00:18.239Z,391
2023-01-23T09:02:16.906Z,390
2023-01-23T09:03:17.125Z,396
2023-01-23T09:04:17.496Z,389
2023-01-23T09:06:17.386Z,400
2023-01-23T09:07:17.677Z,399
2023-01-23T09:08:16.873Z,394
2023-01-23T09:09:16.701Z,390
2023-01-23T09:10:16.858Z,397
2023-01-23T09:11:17.131Z,395
2023-01-23T09:12:17.131Z,391
2023-01-23T09:13:17.483Z,390
2023-01-23T09:14:17.517Z,383
2023-01-23T09:15:17.249Z,391
2023-01-23T09:16:17.149Z,380
2023-01-23T09:17:17.524Z,375
2023-01-23T09:18:16.972Z,383
2023-01-23T09:19:17.044Z,386
2023-01-23T09:20:17.748Z,393
2023-01-23T09:22:17.144Z,391
2023-01-23T09:24:17.460Z,390
2023-01-23T09:25:17.272Z,387
2023-01-23T09:26:19.749Z,392
2023-01-23T09:27:17.172Z,391
2023-01-23T09:28:17.503Z,395
2023-01-23T09:29:16.958Z,391
2023-01-23T09:30:17.412Z,388
2023-01-23T09:31:17.108Z,382
2023-01-23T09:32:17.562Z,393
2023-01-23T09:33:16.940Z,393
2023-01-23T09:34:17.557Z,390
2023-01-23T09:35:17.433Z,388
2023-01-23T09:36:16.654Z,390
2023-01-23T09:37:16.950Z,387
2023-01-23T09:38:16.811Z,392
2023-01-23T09:39:16.955Z,396
2023-01-23T09:40:17.686Z,386
2023-01-23T09:41:16.776Z,376
2023-01-23T09:42:31.025Z,381
2023-01-23T09:44:17.034Z,384
2023-01-23T09:45:17.025Z,388
2023-01-23T09:46:16.957Z,396
2023-01-23T09:47:16.870Z,390
2023-01-23T09:48:17.028Z,388
2023-01-23T09:49:17.293Z,397
2023-01-23T09:50:17.438Z,396
2023-01-23T09:51:17.386Z,388
2023-01-23T09:52:17.102Z,391
2023-01-23T09:53:17.245Z,395
2023-01-23T09:54:17.328Z,394
2023-01-23T09:56:17.444Z,397
2023-01-23T09:57:17.128Z,405
2023-01-23T09:58:16.899Z,402
2023-01-23T09:59:16.503Z,383
2023-01-23T10:00:18.710Z,385
2023-01-23T10:01:17.586Z,382
2023-01-23T10:02:16.949Z,391
2023-01-23T10:03:17.341Z,393
2023-01-23T10:04:17.368Z,390
2023-01-23T10:05:17.563Z,389
2023-01-23T10:06:16.878Z,389
2023-01-23T10:07:19.102Z,392
2023-01-23T10:08:17.350Z,395
2023-01-23T10:09:17.699Z,394
2023-01-23T10:10:17.461Z,394
2023-01-23T10:11:16.890Z,395
2023-01-23T10:12:17.421Z,396
2023-01-23T10:13:17.531Z,396
2023-01-23T10:15:18.037Z,393
2023-01-23T10:16:17.623Z,390
2023-01-23T10:17:17.372Z,393
2023-01-23T10:18:17.436Z,396
2023-01-23T10:19:17.723Z,397
2023-01-23T10:20:16.981Z,393
2023-01-23T10:21:17.194Z,398
2023-01-23T10:22:23.033Z,393
2023-01-23T10:23:17.327Z,394
2023-01-23T10:24:17.411Z,393
2023-01-23T10:26:17.144Z,379
2023-01-23T10:27:17.289Z,388
2023-01-23T10:28:17.517Z,390
2023-01-23T10:29:17.018Z,386
2023-01-23T10:30:17.408Z,398
2023-01-23T10:31:17.116Z,397
2023-01-23T10:32:17.516Z,393
2023-01-23T10:34:16.659Z,400
2023-01-23T10:35:17.404Z,394
2023-01-23T10:36:23.499Z,391
2023-01-23T10:37:16.924Z,391
2023-01-23T10:39:17.112Z,395
2023-01-23T10:41:18.055Z,390
2023-01-23T10:42:17.805Z,390
2023-01-23T10:43:17.421Z,390
2023-01-23T10:45:17.259Z,394
2023-01-23T10:46:17.243Z,385
2023-01-23T10:47:17.660Z,393
2023-01-23T10:48:17.727Z,395
2023-01-23T10:49:17.251Z,394
2023-01-23T10:50:17.493Z,397
2023-01-23T10:51:17.173Z,397
2023-01-23T10:52:16.924Z,386
2023-01-23T10:54:30.324Z,382
2023-01-23T10:56:17.766Z,386
2023-01-23T10:57:17.863Z,387
2023-01-23T10:58:17.902Z,395
2023-01-23T11:00:18.176Z,391
2023-01-23T11:01:18.636Z,378
2023-01-23T11:02:18.010Z,374
2023-01-23T11:03:17.450Z,379
2023-01-23T11:04:16.765Z,376
2023-01-23T11:05:17.499Z,382
2023-01-23T11:06:17.226Z,391
2023-01-23T11:08:17.137Z,381
2023-01-23T11:09:17.447Z,374
2023-01-23T11:10:17.265Z,382
2023-01-23T11:12:17.386Z,400
2023-01-23T11:13:17.738Z,403
2023-01-23T11:14:16.988Z,388
2023-01-23T11:16:17.688Z,398
2023-01-23T11:17:18.167Z,395
2023-01-23T11:18:18.289Z,395
2023-01-23T11:20:17.984Z,385
2023-01-23T11:21:17.211Z,382
2023-01-23T11:22:17.201Z,390
2023-01-23T11:24:18.892Z,389
2023-01-23T11:25:18.281Z,388
2023-01-23T11:28:17.815Z,385
2023-01-23T11:29:17.965Z,386
2023-01-23T11:30:18.023Z,394
2023-01-23T11:32:18.108Z,395
2023-01-23T11:34:18.308Z,402
2023-01-23T11:35:18.206Z,402
2023-01-23T11:36:17.638Z,397
2023-01-23T11:37:17.547Z,396
2023-01-23T11:38:19.770Z,399
2023-01-23T11:40:17.940Z,403
2023-01-23T11:41:17.461Z,397
2023-01-23T11:42:17.013Z,395
2023-01-23T11:43:17.598Z,401
2023-01-23T11:44:18.622Z,394
2023-01-23T11:45:17.329Z,393
2023-01-23T11:47:17.092Z,386
2023-01-23T11:48:17.400Z,400
2023-01-23T11:50:17.749Z,403
2023-01-23T11:51:17.289Z,394
2023-01-23T11:52:17.266Z,387
2023-01-23T11:53:17.412Z,383
2023-01-23T11:55:17.456Z,384
2023-01-23T11:56:17.281Z,389
2023-01-23T11:58:17.679Z,383
2023-01-23T11:59:17.440Z,383
2023-01-23T12:00:18.762Z,381
2023-01-23T12:01:17.376Z,387
2023-01-23T12:02:17.365Z,390
2023-01-23T12:04:17.296Z,393
2023-01-23T12:06:20.331Z,395
2023-01-23T12:07:17.250Z,385
2023-01-23T12:08:17.275Z,394
2023-01-23T12:09:17.381Z,398
2023-01-23T12:10:17.741Z,389
2023-01-23T12:12:17.560Z,401
2023-01-23T12:13:17.803Z,391
2023-01-23T12:14:17.436Z,393
2023-01-23T12:15:15.123Z,393
2023-01-23T12:16:17.323Z,371
2023-01-23T12:17:17.356Z,382
2023-01-23T12:18:17.048Z,384
2023-01-23T12:19:17.455Z,374
2023-01-23T12:20:17.152Z,370
2023-01-23T12:21:17.484Z,373
2023-01-23T12:22:17.125Z,387
2023-01-23T12:24:17.841Z,391
2023-01-23T12:25:17.694Z,386
2023-01-23T12:27:17.429Z,381
2023-01-23T12:28:18.069Z,380
2023-01-23T12:29:17.156Z,383
2023-01-23T12:31:17.593Z,391
2023-01-23T12:32:17.170Z,386
2023-01-23T12:33:17.680Z,385
2023-01-23T12:34:17.099Z,389
2023-01-23T12:36:17.461Z,377
2023-01-23T12:37:30.037Z,372
2023-01-23T12:38:17.361Z,372
2023-01-23T12:39:17.660Z,376
2023-01-23T12:41:17.452Z,369
2023-01-23T12:42:17.458Z,366
2023-01-23T12:44:17.381Z,388
2023-01-23T12:45:18.017Z,373
2023-01-23T12:46:17.287Z,373
2023-01-23T12:48:17.412Z,374
2023-01-23T12:49:17.328Z,380
2023-01-23T12:50:17.142Z,384
2023-01-23T12:52:17.175Z,384
2023-01-23T12:53:17.383Z,386
2023-01-23T12:54:16.954Z,372
2023-01-23T12:55:17.326Z,381
2023-01-23T12:56:17.259Z,380
2023-01-23T12:57:17.857Z,380
2023-01-23T12:58:17.688Z,380
2023-01-23T13:00:17.948Z,383
2023-01-23T13:01:17.859Z,381
2023-01-23T13:02:17.651Z,386
2023-01-23T13:04:17.506Z,387
2023-01-23T13:05:17.485Z,378
2023-01-23T13:06:17.357Z,369
2023-01-23T13:07:17.573Z,359
2023-01-23T13:08:19.005Z,379
2023-01-23T13:09:18.741Z,377
2023-01-23T13:10:17.664Z,375
2023-01-23T13:11:18.860Z,375
2023-01-23T13:12:17.376Z,371
2023-01-23T13:13:17.390Z,379
2023-01-23T13:14:17.628Z,375
2023-01-23T13:15:20.656Z,375
2023-01-23T13:16:16.813Z,374
2023-01-23T13:17:16.887Z,378
2023-01-23T13:18:16.735Z,379
2023-01-23T13:19:16.849Z,381
2023-01-23T13:20:16.940Z,385
2023-01-23T13:21:16.832Z,383
2023-01-23T13:22:26.974Z,385
2023-01-23T13:23:16.852Z,403
2023-01-23T13:24:16.753Z,396
2023-01-23T13:27:17.154Z,379
2023-01-23T13:28:19.568Z,387
2023-01-23T13:29:17.051Z,390
2023-01-23T13:30:17.220Z,380
2023-01-23T13:31:17.513Z,367
2023-01-23T13:32:17.104Z,379
2023-01-23T13:34:17.236Z,381
2023-01-23T13:35:17.233Z,385
2023-01-23T13:36:16.843Z,387
2023-01-23T13:37:17.300Z,383
2023-01-23T13:38:16.913Z,383
2023-01-23T13:39:17.024Z,387
2023-01-23T13:40:17.333Z,384
2023-01-23T13:41:17.469Z,382
2023-01-23T13:42:17.723Z,375
2023-01-23T13:43:17.071Z,383
2023-01-23T13:44:17.789Z,386
2023-01-23T13:45:17.214Z,372
2023-01-23T13:46:18.323Z,381
2023-01-23T14:20:18.203Z,390
2023-01-23T14:21:18.681Z,389
2023-01-23T14:22:17.026Z,380
2023-01-23T14:23:17.270Z,377
2023-01-23T14:24:17.458Z,382
2023-01-23T14:25:17.592Z,376
2023-01-23T14:26:16.793Z,383
2023-01-23T14:27:21.179Z,388
2023-01-23T14:28:17.179Z,389
2023-01-23T14:31:17.551Z,377
2023-01-23T14:32:17.349Z,385
2023-01-23T14:33:17.367Z,381
2023-01-23T14:34:18.852Z,379
2023-01-23T14:35:16.758Z,373
2023-01-23T14:37:17.519Z,375
2023-01-23T14:38:17.002Z,378
2023-01-23T14:39:16.798Z,380
2023-01-23T14:40:26.550Z,377
2023-01-23T14:41:19.101Z,376
2023-01-23T14:42:23.392Z,373
2023-01-23T14:43:17.120Z,374
2023-01-23T14:44:17.108Z,370
2023-01-23T14:45:17.122Z,382
2023-01-23T14:46:17.537Z,376
2023-01-23T14:47:16.700Z,377
2023-01-23T14:48:17.251Z,389
2023-01-23T14:49:17.401Z,386
2023-01-23T14:51:18.777Z,374
2023-01-23T14:52:16.956Z,377
2023-01-23T14:53:17.481Z,382
2023-01-23T14:54:20.447Z,380
2023-01-23T14:55:25.362Z,379
2023-01-23T14:56:16.973Z,378
2023-01-23T14:57:16.959Z,385
2023-01-23T14:58:17.137Z,390
2023-01-23T14:59:17.471Z,388
2023-01-23T15:01:17.550Z,371
2023-01-23T15:02:20.637Z,371
2023-01-23T15:03:17.379Z,367
2023-01-23T15:04:17.309Z,374
2023-01-23T15:06:17.298Z,378
2023-01-23T15:07:17.354Z,381
2023-01-23T15:08:17.528Z,378
2023-01-23T15:10:16.879Z,385
2023-01-23T15:11:16.862Z,374
2023-01-23T15:12:17.053Z,367
2023-01-23T15:13:17.110Z,361
2023-01-23T15:14:17.163Z,375
2023-01-23T15:15:17.856Z,377
2023-01-23T15:16:17.104Z,377
2023-01-23T15:17:17.326Z,380
2023-01-23T15:18:17.959Z,374
2023-01-23T15:19:17.645Z,368
2023-01-23T15:20:17.628Z,380
2023-01-23T15:22:17.103Z,386
2023-01-23T15:23:17.732Z,384
2023-01-23T15:25:17.179Z,382
2023-01-23T15:26:17.204Z,380
2023-01-23T15:27:17.202Z,374
2023-01-23T15:28:16.960Z,387
2023-01-23T15:29:16.910Z,386
2023-01-23T15:30:17.335Z,377
2023-01-23T15:31:18.108Z,371
2023-01-23T15:32:17.187Z,371
2023-01-23T15:33:18.115Z,377
2023-01-23T15:34:17.942Z,380
2023-01-23T15:35:17.980Z,379
2023-01-23T15:38:17.331Z,382
2023-01-23T15:39:17.463Z,387
2023-01-23T15:40:16.973Z,380
2023-01-23T15:41:23.776Z,370
2023-01-23T15:42:17.297Z,381
2023-01-23T15:44:16.706Z,391
2023-01-23T15:45:17.749Z,383
2023-01-23T15:48:17.029Z,376
2023-01-23T15:49:25.507Z,384
2023-01-23T15:50:17.231Z,394
2023-01-23T15:51:16.994Z,383
2023-01-23T15:52:17.268Z,388
2023-01-23T15:53:17.371Z,381
2023-01-23T15:55:17.223Z,384
2023-01-23T15:56:17.317Z,377
2023-01-23T15:57:17.516Z,371
2023-01-23T15:59:17.901Z,372
2023-01-23T16:00:18.689Z,379
2023-01-23T16:01:17.615Z,379
2023-01-23T16:02:29.501Z,380
2023-01-23T16:03:17.650Z,394
2023-01-23T16:04:17.225Z,392
2023-01-23T16:05:17.335Z,394
2023-01-23T16:06:17.370Z,379
2023-01-23T16:07:16.900Z,381
2023-01-23T16:08:17.231Z,392
2023-01-23T16:09:17.062Z,386
2023-01-23T16:10:17.280Z,389
2023-01-23T16:11:17.303Z,383
2023-01-23T16:13:17.224Z,379
2023-01-23T16:14:17.398Z,386
2023-01-23T16:15:18.011Z,389
2023-01-23T16:17:17.510Z,388
2023-01-23T16:18:16.592Z,386
2023-01-23T16:19:17.363Z,396
2023-01-23T16:21:17.039Z,384
2023-01-23T16:22:17.037Z,387